sensor_id;sensor_type;location;lat;lon;timestamp;P1;durP1;ratioP1;P2;durP2;ratioP2
74926;SDS011;63488;48.092;-1.640;2023-02-05T00:00:27;10.15;;;6.18;;
74926;SDS011;63488;48.092;-1.640;2023-02-05T00:02:52;12.30;;;7.00;;
74926;SDS011;63488;48.092;-1.640;2023-02-05T00:05:18;11.52;;;6.60;;
74926;SDS011;63488;48.092;-1.640;2023-02-05T00:07:43;9.73;;;6.75;;
74926;SDS011;63488;48.092;-1.640;2023-02-05T00:10:08;9.20;;;6.68;;
74926;SDS011;63488;48.092;-1.640;2023-02-05T00:12:34;10.35;;;6.10;;
74926;SDS011;63488;48.092;-1.640;2023-02-05T00:14:59;13.18;;;6.40;;
74926;SDS011;63488;48.092;-1.640;2023-02-05T00:17:24;9.27;;;6.38;;
74926;SDS011;63488;48.092;-1.640;2023-02-05T00:19:50;10.35;;;6.45;;
74926;SDS011;63488;48.092;-1.640;2023-02-05T00:22:15;11.75;;;6.22;;
74926;SDS011;63488;48.092;-1.640;2023-02-05T00:24:40;9.45;;;6.32;;
74926;SDS011;63488;48.092;-1.640;2023-02-05T00:27:06;10.73;;;6.28;;
74926;SDS011;63488;48.092;-1.640;2023-02-05T00:29:31;8.90;;;5.60;;
74926;SDS011;63488;48.092;-1.640;2023-02-05T00:31:57;7.70;;;5.97;;
74926;SDS011;63488;48.092;-1.640;2023-02-05T00:34:22;10.18;;;5.75;;
74926;SDS011;63488;48.092;-1.640;2023-02-05T00:36:47;10.07;;;6.00;;
74926;SDS011;63488;48.092;-1.640;2023-02-05T00:39:13;9.75;;;6.20;;
74926;SDS011;63488;48.092;-1.640;2023-02-05T00:41:38;10.60;;;6.38;;
74926;SDS011;63488;48.092;-1.640;2023-02-05T00:44:04;10.38;;;6.32;;
74926;SDS011;63488;48.092;-1.640;2023-02-05T00:46:29;10.00;;;6.15;;
74926;SDS011;63488;48.092;-1.640;2023-02-05T00:48:54;9.02;;;5.78;;
74926;SDS011;63488;48.092;-1.640;2023-02-05T00:51:20;12.20;;;6.50;;
74926;SDS011;63488;48.092;-1.640;2023-02-05T00:53:45;8.85;;;6.03;;
74926;SDS011;63488;48.092;-1.640;2023-02-05T00:56:10;10.40;;;6.10;;
74926;SDS011;63488;48.092;-1.640;2023-02-05T00:58:36;7.97;;;6.00;;
74926;SDS011;63488;48.092;-1.640;2023-02-05T01:01:01;9.60;;;5.70;;
74926;SDS011;63488;48.092;-1.640;2023-02-05T01:03:26;11.50;;;5.70;;
74926;SDS011;63488;48.092;-1.640;2023-02-05T01:05:52;8.10;;;5.18;;
74926;SDS011;63488;48.092;-1.640;2023-02-05T01:08:17;9.05;;;5.20;;
74926;SDS011;63488;48.092;-1.640;2023-02-05T01:10:43;10.02;;;5.30;;
74926;SDS011;63488;48.092;-1.640;2023-02-05T01:13:09;10.52;;;5.88;;
74926;SDS011;63488;48.092;-1.640;2023-02-05T01:15:34;8.20;;;5.90;;
74926;SDS011;63488;48.092;-1.640;2023-02-05T01:17:59;9.88;;;5.57;;
74926;SDS011;63488;48.092;-1.640;2023-02-05T01:20:25;10.02;;;5.47;;
74926;SDS011;63488;48.092;-1.640;2023-02-05T01:22:50;10.23;;;5.85;;
74926;SDS011;63488;48.092;-1.640;2023-02-05T01:25:16;11.38;;;5.97;;
74926;SDS011;63488;48.092;-1.640;2023-02-05T01:27:41;9.98;;;5.55;;
74926;SDS011;63488;48.092;-1.640;2023-02-05T01:30:06;10.10;;;5.78;;
74926;SDS011;63488;48.092;-1.640;2023-02-05T01:32:32;11.20;;;6.78;;
74926;SDS011;63488;48.092;-1.640;2023-02-05T01:34:57;12.27;;;6.45;;
74926;SDS011;63488;48.092;-1.640;2023-02-05T01:37:23;10.70;;;6.63;;
74926;SDS011;63488;48.092;-1.640;2023-02-05T01:39:48;10.30;;;6.55;;
74926;SDS011;63488;48.092;-1.640;2023-02-05T01:42:15;9.85;;;6.70;;
74926;SDS011;63488;48.092;-1.640;2023-02-05T01:44:41;12.55;;;6.57;;
74926;SDS011;63488;48.092;-1.640;2023-02-05T01:47:06;11.57;;;5.93;;
74926;SDS011;63488;48.092;-1.640;2023-02-05T01:49:36;11.82;;;6.18;;
74926;SDS011;63488;48.092;-1.640;2023-02-05T01:52:02;10.30;;;5.78;;
74926;SDS011;63488;48.092;-1.640;2023-02-05T01:54:30;10.27;;;5.63;;
74926;SDS011;63488;48.092;-1.640;2023-02-05T01:57:02;9.88;;;5.88;;
74926;SDS011;63488;48.092;-1.640;2023-02-05T01:59:29;10.57;;;6.10;;
74926;SDS011;63488;48.092;-1.640;2023-02-05T02:01:57;11.45;;;6.78;;
74926;SDS011;63488;48.092;-1.640;2023-02-05T02:04:36;11.15;;;6.35;;
74926;SDS011;63488;48.092;-1.640;2023-02-05T02:07:02;9.48;;;6.40;;
74926;SDS011;63488;48.092;-1.640;2023-02-05T02:09:28;11.27;;;6.00;;
74926;SDS011;63488;48.092;-1.640;2023-02-05T02:11:53;8.10;;;6.35;;
74926;SDS011;63488;48.092;-1.640;2023-02-05T02:14:19;8.75;;;6.03;;
74926;SDS011;63488;48.092;-1.640;2023-02-05T02:16:45;9.13;;;5.95;;
74926;SDS011;63488;48.092;-1.640;2023-02-05T02:19:14;11.98;;;6.90;;
74926;SDS011;63488;48.092;-1.640;2023-02-05T02:29:57;10.00;;;6.32;;
74926;SDS011;63488;48.092;-1.640;2023-02-05T02:34:55;11.52;;;7.03;;
74926;SDS011;63488;48.092;-1.640;2023-02-05T02:42:38;9.82;;;6.78;;
74926;SDS011;63488;48.092;-1.640;2023-02-05T02:45:06;10.82;;;6.20;;
74926;SDS011;63488;48.092;-1.640;2023-02-05T02:47:36;9.27;;;5.65;;
74926;SDS011;63488;48.092;-1.640;2023-02-05T02:50:08;8.45;;;6.00;;
74926;SDS011;63488;48.092;-1.640;2023-02-05T02:52:36;9.77;;;6.18;;
74926;SDS011;63488;48.092;-1.640;2023-02-05T02:55:04;7.68;;;5.75;;
74926;SDS011;63488;48.092;-1.640;2023-02-05T02:57:32;9.60;;;5.63;;
74926;SDS011;63488;48.092;-1.640;2023-02-05T02:59:59;8.32;;;5.32;;
74926;SDS011;63488;48.092;-1.640;2023-02-05T03:02:25;7.60;;;5.10;;
74926;SDS011;63488;48.092;-1.640;2023-02-05T03:04:54;9.82;;;5.10;;
74926;SDS011;63488;48.092;-1.640;2023-02-05T03:07:22;6.25;;;4.95;;
74926;SDS011;63488;48.092;-1.640;2023-02-05T03:09:59;7.80;;;5.18;;
74926;SDS011;63488;48.092;-1.640;2023-02-05T03:12:26;7.70;;;4.95;;
74926;SDS011;63488;48.092;-1.640;2023-02-05T03:14:52;6.60;;;4.80;;
74926;SDS011;63488;48.092;-1.640;2023-02-05T03:17:17;8.43;;;4.72;;
74926;SDS011;63488;48.092;-1.640;2023-02-05T03:19:44;10.15;;;4.65;;
74926;SDS011;63488;48.092;-1.640;2023-02-05T03:22:10;6.47;;;4.53;;
74926;SDS011;63488;48.092;-1.640;2023-02-05T03:24:35;8.20;;;5.35;;
74926;SDS011;63488;48.092;-1.640;2023-02-05T03:27:02;7.45;;;4.53;;
74926;SDS011;63488;48.092;-1.640;2023-02-05T03:29:29;7.85;;;4.13;;
74926;SDS011;63488;48.092;-1.640;2023-02-05T03:39:33;12.38;;;4.65;;
74926;SDS011;63488;48.092;-1.640;2023-02-05T03:42:10;8.27;;;4.25;;
74926;SDS011;63488;48.092;-1.640;2023-02-05T03:47:08;10.50;;;4.72;;
74926;SDS011;63488;48.092;-1.640;2023-02-05T03:52:05;10.13;;;4.93;;
74926;SDS011;63488;48.092;-1.640;2023-02-05T03:54:33;6.55;;;4.20;;
74926;SDS011;63488;48.092;-1.640;2023-02-05T03:57:04;7.55;;;4.40;;
74926;SDS011;63488;48.092;-1.640;2023-02-05T03:59:32;8.60;;;4.43;;
74926;SDS011;63488;48.092;-1.640;2023-02-05T04:01:59;7.55;;;4.90;;
74926;SDS011;63488;48.092;-1.640;2023-02-05T04:04:24;9.07;;;4.20;;
74926;SDS011;63488;48.092;-1.640;2023-02-05T04:06:50;7.55;;;4.57;;
74926;SDS011;63488;48.092;-1.640;2023-02-05T04:09:15;9.27;;;4.25;;
74926;SDS011;63488;48.092;-1.640;2023-02-05T04:11:41;10.85;;;4.45;;
74926;SDS011;63488;48.092;-1.640;2023-02-05T04:14:06;7.07;;;3.80;;
74926;SDS011;63488;48.092;-1.640;2023-02-05T04:16:31;9.05;;;4.07;;
74926;SDS011;63488;48.092;-1.640;2023-02-05T04:18:57;9.45;;;4.22;;
74926;SDS011;63488;48.092;-1.640;2023-02-05T04:21:22;9.15;;;3.97;;
74926;SDS011;63488;48.092;-1.640;2023-02-05T04:23:48;8.40;;;4.45;;
74926;SDS011;63488;48.092;-1.640;2023-02-05T04:26:13;7.32;;;4.20;;
74926;SDS011;63488;48.092;-1.640;2023-02-05T04:28:38;6.72;;;4.00;;
74926;SDS011;63488;48.092;-1.640;2023-02-05T04:31:07;9.95;;;4.45;;
74926;SDS011;63488;48.092;-1.640;2023-02-05T04:33:32;8.75;;;4.15;;
74926;SDS011;63488;48.092;-1.640;2023-02-05T04:35:58;6.63;;;3.80;;
74926;SDS011;63488;48.092;-1.640;2023-02-05T04:38:23;8.90;;;4.00;;
74926;SDS011;63488;48.092;-1.640;2023-02-05T04:40:49;8.85;;;4.40;;
74926;SDS011;63488;48.092;-1.640;2023-02-05T04:43:14;6.70;;;4.05;;
74926;SDS011;63488;48.092;-1.640;2023-02-05T04:45:39;7.15;;;3.83;;
74926;SDS011;63488;48.092;-1.640;2023-02-05T04:48:05;7.32;;;3.88;;
74926;SDS011;63488;48.092;-1.640;2023-02-05T04:50:30;9.80;;;3.60;;
74926;SDS011;63488;48.092;-1.640;2023-02-05T04:52:56;8.25;;;4.00;;
74926;SDS011;63488;48.092;-1.640;2023-02-05T04:55:21;7.95;;;3.75;;
74926;SDS011;63488;48.092;-1.640;2023-02-05T04:57:46;6.55;;;3.60;;
74926;SDS011;63488;48.092;-1.640;2023-02-05T05:00:12;6.70;;;3.97;;
74926;SDS011;63488;48.092;-1.640;2023-02-05T05:02:37;6.68;;;3.75;;
74926;SDS011;63488;48.092;-1.640;2023-02-05T05:05:03;8.50;;;3.88;;
74926;SDS011;63488;48.092;-1.640;2023-02-05T05:07:29;5.78;;;3.75;;
74926;SDS011;63488;48.092;-1.640;2023-02-05T05:09:54;7.35;;;3.88;;
74926;SDS011;63488;48.092;-1.640;2023-02-05T05:12:20;7.78;;;3.60;;
74926;SDS011;63488;48.092;-1.640;2023-02-05T05:14:45;9.55;;;3.63;;
74926;SDS011;63488;48.092;-1.640;2023-02-05T05:17:10;7.18;;;3.90;;
74926;SDS011;63488;48.092;-1.640;2023-02-05T05:19:37;8.52;;;3.58;;
74926;SDS011;63488;48.092;-1.640;2023-02-05T05:22:02;7.03;;;3.88;;
74926;SDS011;63488;48.092;-1.640;2023-02-05T05:24:28;6.97;;;3.50;;
74926;SDS011;63488;48.092;-1.640;2023-02-05T05:26:53;7.07;;;4.50;;
74926;SDS011;63488;48.092;-1.640;2023-02-05T05:29:18;8.07;;;3.70;;
74926;SDS011;63488;48.092;-1.640;2023-02-05T05:31:44;8.88;;;4.13;;
74926;SDS011;63488;48.092;-1.640;2023-02-05T05:34:09;9.30;;;3.60;;
74926;SDS011;63488;48.092;-1.640;2023-02-05T05:36:34;6.22;;;3.78;;
74926;SDS011;63488;48.092;-1.640;2023-02-05T05:39:00;6.88;;;3.60;;
74926;SDS011;63488;48.092;-1.640;2023-02-05T05:41:45;8.63;;;3.63;;
74926;SDS011;63488;48.092;-1.640;2023-02-05T05:44:29;8.45;;;4.28;;
74926;SDS011;63488;48.092;-1.640;2023-02-05T05:46:54;6.63;;;3.53;;
74926;SDS011;63488;48.092;-1.640;2023-02-05T05:49:19;6.38;;;3.40;;
74926;SDS011;63488;48.092;-1.640;2023-02-05T05:51:45;8.93;;;3.88;;
74926;SDS011;63488;48.092;-1.640;2023-02-05T05:54:10;8.60;;;4.00;;
74926;SDS011;63488;48.092;-1.640;2023-02-05T05:56:35;8.52;;;3.90;;
74926;SDS011;63488;48.092;-1.640;2023-02-05T05:59:02;7.85;;;3.97;;
74926;SDS011;63488;48.092;-1.640;2023-02-05T06:01:27;7.80;;;3.28;;
74926;SDS011;63488;48.092;-1.640;2023-02-05T06:03:53;6.88;;;3.58;;
74926;SDS011;63488;48.092;-1.640;2023-02-05T06:06:18;6.45;;;3.70;;
74926;SDS011;63488;48.092;-1.640;2023-02-05T06:08:43;6.47;;;3.50;;
74926;SDS011;63488;48.092;-1.640;2023-02-05T06:11:09;8.63;;;3.75;;
74926;SDS011;63488;48.092;-1.640;2023-02-05T06:13:34;6.72;;;3.55;;
74926;SDS011;63488;48.092;-1.640;2023-02-05T06:15:59;9.05;;;4.22;;
74926;SDS011;63488;48.092;-1.640;2023-02-05T06:18:25;4.97;;;3.20;;
74926;SDS011;63488;48.092;-1.640;2023-02-05T06:20:50;6.18;;;3.75;;
74926;SDS011;63488;48.092;-1.640;2023-02-05T06:23:15;9.18;;;3.85;;
74926;SDS011;63488;48.092;-1.640;2023-02-05T06:25:41;6.82;;;3.45;;
74926;SDS011;63488;48.092;-1.640;2023-02-05T06:28:06;8.23;;;3.80;;
74926;SDS011;63488;48.092;-1.640;2023-02-05T06:30:31;7.60;;;3.95;;
74926;SDS011;63488;48.092;-1.640;2023-02-05T06:32:57;9.13;;;4.40;;
74926;SDS011;63488;48.092;-1.640;2023-02-05T06:35:22;8.57;;;4.00;;
74926;SDS011;63488;48.092;-1.640;2023-02-05T06:37:48;7.82;;;4.15;;
74926;SDS011;63488;48.092;-1.640;2023-02-05T06:40:14;8.18;;;4.97;;
74926;SDS011;63488;48.092;-1.640;2023-02-05T06:42:39;7.88;;;4.15;;
74926;SDS011;63488;48.092;-1.640;2023-02-05T06:45:05;7.65;;;4.10;;
74926;SDS011;63488;48.092;-1.640;2023-02-05T06:47:31;8.75;;;4.32;;
74926;SDS011;63488;48.092;-1.640;2023-02-05T06:49:56;8.88;;;3.90;;
74926;SDS011;63488;48.092;-1.640;2023-02-05T06:52:21;8.43;;;3.47;;
74926;SDS011;63488;48.092;-1.640;2023-02-05T06:54:47;10.10;;;4.07;;
74926;SDS011;63488;48.092;-1.640;2023-02-05T06:57:12;6.20;;;3.50;;
74926;SDS011;63488;48.092;-1.640;2023-02-05T06:59:37;5.93;;;3.70;;
74926;SDS011;63488;48.092;-1.640;2023-02-05T07:02:03;9.93;;;4.10;;
74926;SDS011;63488;48.092;-1.640;2023-02-05T07:04:28;6.45;;;3.70;;
74926;SDS011;63488;48.092;-1.640;2023-02-05T07:06:57;5.68;;;3.03;;
74926;SDS011;63488;48.092;-1.640;2023-02-05T07:09:22;6.25;;;3.17;;
74926;SDS011;63488;48.092;-1.640;2023-02-05T07:11:48;7.68;;;3.67;;
74926;SDS011;63488;48.092;-1.640;2023-02-05T07:14:13;5.75;;;3.47;;
74926;SDS011;63488;48.092;-1.640;2023-02-05T07:16:39;6.95;;;3.50;;
74926;SDS011;63488;48.092;-1.640;2023-02-05T07:19:05;6.97;;;3.50;;
74926;SDS011;63488;48.092;-1.640;2023-02-05T07:21:30;5.38;;;3.30;;
74926;SDS011;63488;48.092;-1.640;2023-02-05T07:23:55;6.82;;;3.40;;
74926;SDS011;63488;48.092;-1.640;2023-02-05T07:26:21;6.38;;;3.00;;
74926;SDS011;63488;48.092;-1.640;2023-02-05T07:28:47;6.80;;;2.97;;
74926;SDS011;63488;48.092;-1.640;2023-02-05T07:31:14;6.13;;;3.47;;
74926;SDS011;63488;48.092;-1.640;2023-02-05T07:33:40;9.18;;;3.28;;
74926;SDS011;63488;48.092;-1.640;2023-02-05T07:36:06;6.88;;;3.25;;
74926;SDS011;63488;48.092;-1.640;2023-02-05T07:38:32;8.65;;;3.35;;
74926;SDS011;63488;48.092;-1.640;2023-02-05T07:40:58;6.93;;;2.80;;
74926;SDS011;63488;48.092;-1.640;2023-02-05T07:43:23;7.75;;;3.10;;
74926;SDS011;63488;48.092;-1.640;2023-02-05T07:45:55;4.65;;;2.58;;
74926;SDS011;63488;48.092;-1.640;2023-02-05T07:48:21;5.20;;;3.05;;
74926;SDS011;63488;48.092;-1.640;2023-02-05T07:50:46;5.65;;;3.22;;
74926;SDS011;63488;48.092;-1.640;2023-02-05T07:53:11;5.15;;;2.80;;
74926;SDS011;63488;48.092;-1.640;2023-02-05T07:55:37;7.18;;;3.35;;
74926;SDS011;63488;48.092;-1.640;2023-02-05T07:58:02;6.05;;;3.00;;
74926;SDS011;63488;48.092;-1.640;2023-02-05T08:00:29;6.13;;;2.70;;
74926;SDS011;63488;48.092;-1.640;2023-02-05T08:02:55;9.75;;;3.13;;
74926;SDS011;63488;48.092;-1.640;2023-02-05T08:05:20;8.18;;;3.08;;
74926;SDS011;63488;48.092;-1.640;2023-02-05T08:07:45;8.23;;;3.25;;
74926;SDS011;63488;48.092;-1.640;2023-02-05T08:10:12;6.35;;;3.10;;
74926;SDS011;63488;48.092;-1.640;2023-02-05T08:12:37;4.88;;;3.10;;
74926;SDS011;63488;48.092;-1.640;2023-02-05T08:15:02;6.38;;;2.97;;
74926;SDS011;63488;48.092;-1.640;2023-02-05T08:17:28;7.00;;;2.78;;
74926;SDS011;63488;48.092;-1.640;2023-02-05T08:19:53;6.03;;;2.70;;
74926;SDS011;63488;48.092;-1.640;2023-02-05T08:22:18;5.28;;;2.70;;
74926;SDS011;63488;48.092;-1.640;2023-02-05T08:24:44;6.47;;;2.72;;
74926;SDS011;63488;48.092;-1.640;2023-02-05T08:27:09;6.28;;;3.42;;
74926;SDS011;63488;48.092;-1.640;2023-02-05T08:29:34;4.88;;;2.55;;
74926;SDS011;63488;48.092;-1.640;2023-02-05T08:32:00;5.55;;;3.15;;
74926;SDS011;63488;48.092;-1.640;2023-02-05T08:34:25;5.97;;;2.70;;
74926;SDS011;63488;48.092;-1.640;2023-02-05T08:36:50;7.07;;;3.60;;
74926;SDS011;63488;48.092;-1.640;2023-02-05T08:39:16;6.43;;;2.72;;
74926;SDS011;63488;48.092;-1.640;2023-02-05T08:41:41;6.47;;;3.00;;
74926;SDS011;63488;48.092;-1.640;2023-02-05T08:44:06;7.35;;;3.40;;
74926;SDS011;63488;48.092;-1.640;2023-02-05T08:46:32;8.40;;;3.10;;
74926;SDS011;63488;48.092;-1.640;2023-02-05T08:48:57;6.18;;;3.17;;
74926;SDS011;63488;48.092;-1.640;2023-02-05T08:51:23;7.82;;;3.30;;
74926;SDS011;63488;48.092;-1.640;2023-02-05T08:53:48;6.28;;;3.15;;
74926;SDS011;63488;48.092;-1.640;2023-02-05T08:56:13;6.65;;;3.00;;
74926;SDS011;63488;48.092;-1.640;2023-02-05T08:58:40;6.97;;;3.35;;
74926;SDS011;63488;48.092;-1.640;2023-02-05T09:01:06;7.50;;;3.58;;
74926;SDS011;63488;48.092;-1.640;2023-02-05T09:03:32;5.95;;;3.53;;
74926;SDS011;63488;48.092;-1.640;2023-02-05T09:05:58;5.78;;;3.20;;
74926;SDS011;63488;48.092;-1.640;2023-02-05T09:08:24;7.10;;;3.28;;
74926;SDS011;63488;48.092;-1.640;2023-02-05T09:10:50;7.18;;;3.20;;
74926;SDS011;63488;48.092;-1.640;2023-02-05T09:13:15;5.47;;;3.20;;
74926;SDS011;63488;48.092;-1.640;2023-02-05T09:15:44;6.18;;;3.20;;
74926;SDS011;63488;48.092;-1.640;2023-02-05T09:18:10;8.35;;;3.42;;
74926;SDS011;63488;48.092;-1.640;2023-02-05T09:20:39;6.22;;;3.22;;
74926;SDS011;63488;48.092;-1.640;2023-02-05T09:23:04;6.95;;;3.55;;
74926;SDS011;63488;48.092;-1.640;2023-02-05T09:25:30;7.45;;;3.70;;
74926;SDS011;63488;48.092;-1.640;2023-02-05T09:27:58;8.43;;;4.22;;
74926;SDS011;63488;48.092;-1.640;2023-02-05T09:30:23;11.52;;;4.20;;
74926;SDS011;63488;48.092;-1.640;2023-02-05T09:32:48;7.85;;;3.75;;
74926;SDS011;63488;48.092;-1.640;2023-02-05T09:35:14;7.18;;;4.22;;
74926;SDS011;63488;48.092;-1.640;2023-02-05T09:37:39;9.70;;;4.07;;
74926;SDS011;63488;48.092;-1.640;2023-02-05T09:40:04;7.55;;;4.20;;
74926;SDS011;63488;48.092;-1.640;2023-02-05T09:42:42;9.25;;;4.32;;
74926;SDS011;63488;48.092;-1.640;2023-02-05T09:45:15;10.77;;;4.43;;
74926;SDS011;63488;48.092;-1.640;2023-02-05T09:50:23;8.85;;;3.75;;
74926;SDS011;63488;48.092;-1.640;2023-02-05T09:52:55;8.75;;;3.47;;
74926;SDS011;63488;48.092;-1.640;2023-02-05T09:55:24;6.80;;;3.70;;
74926;SDS011;63488;48.092;-1.640;2023-02-05T09:57:52;11.18;;;3.95;;
74926;SDS011;63488;48.092;-1.640;2023-02-05T10:00:20;10.88;;;3.75;;
74926;SDS011;63488;48.092;-1.640;2023-02-05T10:02:48;11.05;;;4.47;;
74926;SDS011;63488;48.092;-1.640;2023-02-05T10:05:15;8.65;;;3.65;;
74926;SDS011;63488;48.092;-1.640;2023-02-05T10:10:25;13.27;;;4.30;;
74926;SDS011;63488;48.092;-1.640;2023-02-05T10:12:53;8.52;;;3.65;;
74926;SDS011;63488;48.092;-1.640;2023-02-05T10:22:51;11.00;;;3.75;;
74926;SDS011;63488;48.092;-1.640;2023-02-05T10:25:23;7.15;;;3.53;;
74926;SDS011;63488;48.092;-1.640;2023-02-05T10:30:24;9.30;;;3.83;;
74926;SDS011;63488;48.092;-1.640;2023-02-05T10:32:58;11.15;;;3.70;;
74926;SDS011;63488;48.092;-1.640;2023-02-05T10:35:37;8.43;;;2.90;;
74926;SDS011;63488;48.092;-1.640;2023-02-05T10:38:22;10.18;;;2.95;;
74926;SDS011;63488;48.092;-1.640;2023-02-05T10:40:47;6.78;;;3.50;;
74926;SDS011;63488;48.092;-1.640;2023-02-05T10:43:23;8.07;;;3.33;;
74926;SDS011;63488;48.092;-1.640;2023-02-05T10:45:50;10.90;;;3.63;;
74926;SDS011;63488;48.092;-1.640;2023-02-05T10:51:01;7.75;;;3.20;;
74926;SDS011;63488;48.092;-1.640;2023-02-05T10:53:27;10.60;;;3.08;;
74926;SDS011;63488;48.092;-1.640;2023-02-05T10:55:53;9.23;;;3.20;;
74926;SDS011;63488;48.092;-1.640;2023-02-05T10:58:24;9.07;;;3.00;;
74926;SDS011;63488;48.092;-1.640;2023-02-05T11:00:52;6.75;;;3.20;;
74926;SDS011;63488;48.092;-1.640;2023-02-05T11:03:18;10.40;;;2.97;;
74926;SDS011;63488;48.092;-1.640;2023-02-05T11:05:43;7.07;;;3.10;;
74926;SDS011;63488;48.092;-1.640;2023-02-05T11:10:55;7.68;;;3.47;;
74926;SDS011;63488;48.092;-1.640;2023-02-05T11:13:20;7.15;;;3.03;;
74926;SDS011;63488;48.092;-1.640;2023-02-05T11:15:56;4.40;;;2.58;;
74926;SDS011;63488;48.092;-1.640;2023-02-05T11:18:23;5.78;;;2.53;;
74926;SDS011;63488;48.092;-1.640;2023-02-05T11:20:57;5.40;;;2.33;;
74926;SDS011;63488;48.092;-1.640;2023-02-05T11:23:23;5.95;;;2.53;;
74926;SDS011;63488;48.092;-1.640;2023-02-05T11:25:53;5.75;;;2.70;;
74926;SDS011;63488;48.092;-1.640;2023-02-05T11:30:44;4.03;;;2.15;;
74926;SDS011;63488;48.092;-1.640;2023-02-05T11:35:41;3.83;;;1.65;;
74926;SDS011;63488;48.092;-1.640;2023-02-05T11:40:51;3.60;;;1.90;;
74926;SDS011;63488;48.092;-1.640;2023-02-05T11:43:20;4.73;;;1.93;;
74926;SDS011;63488;48.092;-1.640;2023-02-05T11:45:49;4.18;;;1.92;;
74926;SDS011;63488;48.092;-1.640;2023-02-05T11:48:35;3.13;;;1.50;;
74926;SDS011;63488;48.092;-1.640;2023-02-05T11:51:02;4.88;;;1.90;;
74926;SDS011;63488;48.092;-1.640;2023-02-05T11:53:28;4.28;;;1.85;;
74926;SDS011;63488;48.092;-1.640;2023-02-05T11:55:57;3.15;;;1.88;;
74926;SDS011;63488;48.092;-1.640;2023-02-05T11:58:26;4.03;;;1.90;;
74926;SDS011;63488;48.092;-1.640;2023-02-05T12:00:54;5.80;;;1.70;;
74926;SDS011;63488;48.092;-1.640;2023-02-05T12:03:21;3.87;;;1.80;;
74926;SDS011;63488;48.092;-1.640;2023-02-05T12:06:21;3.75;;;1.73;;
74926;SDS011;63488;48.092;-1.640;2023-02-05T12:09:00;4.20;;;1.88;;
74926;SDS011;63488;48.092;-1.640;2023-02-05T12:11:31;4.60;;;2.05;;
74926;SDS011;63488;48.092;-1.640;2023-02-05T12:14:21;3.85;;;1.85;;
74926;SDS011;63488;48.092;-1.640;2023-02-05T12:16:56;4.82;;;2.08;;
74926;SDS011;63488;48.092;-1.640;2023-02-05T12:19:24;5.10;;;1.83;;
74926;SDS011;63488;48.092;-1.640;2023-02-05T12:21:59;4.75;;;2.13;;
74926;SDS011;63488;48.092;-1.640;2023-02-05T12:27:13;4.93;;;1.88;;
74926;SDS011;63488;48.092;-1.640;2023-02-05T12:32:18;3.60;;;1.60;;
74926;SDS011;63488;48.092;-1.640;2023-02-05T12:37:40;3.70;;;1.40;;
74926;SDS011;63488;48.092;-1.640;2023-02-05T12:40:11;4.40;;;1.45;;
74926;SDS011;63488;48.092;-1.640;2023-02-05T12:45:41;4.90;;;2.20;;
74926;SDS011;63488;48.092;-1.640;2023-02-05T12:55:55;4.68;;;1.98;;
74926;SDS011;63488;48.092;-1.640;2023-02-05T12:58:31;2.45;;;1.30;;
74926;SDS011;63488;48.092;-1.640;2023-02-05T13:00:58;6.97;;;2.05;;
74926;SDS011;63488;48.092;-1.640;2023-02-05T13:04:12;3.53;;;1.57;;
74926;SDS011;63488;48.092;-1.640;2023-02-05T13:06:17;5.88;;;1.90;;
74926;SDS011;63488;48.092;-1.640;2023-02-05T13:11:20;6.32;;;1.90;;
74926;SDS011;63488;48.092;-1.640;2023-02-05T13:13:52;4.78;;;1.65;;
74926;SDS011;63488;48.092;-1.640;2023-02-05T13:16:19;3.72;;;1.27;;
74926;SDS011;63488;48.092;-1.640;2023-02-05T13:18:47;2.08;;;1.40;;
74926;SDS011;63488;48.092;-1.640;2023-02-05T13:21:16;3.97;;;1.38;;
74926;SDS011;63488;48.092;-1.640;2023-02-05T13:24:49;4.50;;;1.10;;
74926;SDS011;63488;48.092;-1.640;2023-02-05T13:27:27;2.50;;;1.10;;
74926;SDS011;63488;48.092;-1.640;2023-02-05T13:30:17;4.55;;;1.60;;
74926;SDS011;63488;48.092;-1.640;2023-02-05T13:32:44;5.13;;;1.50;;
74926;SDS011;63488;48.092;-1.640;2023-02-05T13:35:11;2.72;;;1.20;;
74926;SDS011;63488;48.092;-1.640;2023-02-05T13:43:22;3.83;;;1.63;;
74926;SDS011;63488;48.092;-1.640;2023-02-05T13:53:47;4.20;;;1.50;;
74926;SDS011;63488;48.092;-1.640;2023-02-05T13:58:47;3.10;;;1.20;;
74926;SDS011;63488;48.092;-1.640;2023-02-05T14:01:27;4.50;;;1.40;;
74926;SDS011;63488;48.092;-1.640;2023-02-05T14:04:03;3.33;;;1.10;;
74926;SDS011;63488;48.092;-1.640;2023-02-05T14:06:30;4.72;;;1.40;;
74926;SDS011;63488;48.092;-1.640;2023-02-05T14:14:24;5.18;;;1.13;;
74926;SDS011;63488;48.092;-1.640;2023-02-05T14:16:50;2.15;;;1.02;;
74926;SDS011;63488;48.092;-1.640;2023-02-05T14:19:20;3.00;;;1.10;;
74926;SDS011;63488;48.092;-1.640;2023-02-05T14:24:25;3.28;;;1.10;;
74926;SDS011;63488;48.092;-1.640;2023-02-05T14:32:00;5.88;;;1.38;;
74926;SDS011;63488;48.092;-1.640;2023-02-05T14:36:57;6.13;;;1.35;;
74926;SDS011;63488;48.092;-1.640;2023-02-05T14:39:32;2.85;;;1.20;;
74926;SDS011;63488;48.092;-1.640;2023-02-05T14:41:58;3.42;;;1.35;;
74926;SDS011;63488;48.092;-1.640;2023-02-05T14:44:26;4.35;;;1.63;;
74926;SDS011;63488;48.092;-1.640;2023-02-05T14:46:57;3.80;;;1.20;;
74926;SDS011;63488;48.092;-1.640;2023-02-05T14:49:45;3.47;;;1.20;;
74926;SDS011;63488;48.092;-1.640;2023-02-05T14:52:25;3.30;;;1.55;;
74926;SDS011;63488;48.092;-1.640;2023-02-05T14:54:52;5.28;;;1.50;;
74926;SDS011;63488;48.092;-1.640;2023-02-05T14:57:45;2.85;;;1.10;;
74926;SDS011;63488;48.092;-1.640;2023-02-05T15:00:23;4.45;;;1.40;;
74926;SDS011;63488;48.092;-1.640;2023-02-05T15:05:39;2.92;;;1.35;;
74926;SDS011;63488;48.092;-1.640;2023-02-05T15:13:15;3.95;;;0.90;;
74926;SDS011;63488;48.092;-1.640;2023-02-05T15:18:27;4.77;;;0.97;;
74926;SDS011;63488;48.092;-1.640;2023-02-05T15:20:53;3.53;;;1.55;;
74926;SDS011;63488;48.092;-1.640;2023-02-05T15:23:23;3.67;;;1.10;;
74926;SDS011;63488;48.092;-1.640;2023-02-05T15:28:17;3.43;;;1.00;;
74926;SDS011;63488;48.092;-1.640;2023-02-05T15:30:52;2.17;;;0.90;;
74926;SDS011;63488;48.092;-1.640;2023-02-05T15:33:26;3.90;;;0.95;;
74926;SDS011;63488;48.092;-1.640;2023-02-05T15:35:52;2.83;;;0.77;;
74926;SDS011;63488;48.092;-1.640;2023-02-05T15:38:32;3.45;;;1.00;;
74926;SDS011;63488;48.092;-1.640;2023-02-05T15:43:25;2.47;;;0.93;;
74926;SDS011;63488;48.092;-1.640;2023-02-05T15:46:00;3.10;;;0.90;;
74926;SDS011;63488;48.092;-1.640;2023-02-05T15:48:27;4.47;;;1.15;;
74926;SDS011;63488;48.092;-1.640;2023-02-05T15:56:13;6.00;;;1.20;;
74926;SDS011;63488;48.092;-1.640;2023-02-05T15:59:01;2.20;;;0.82;;
74926;SDS011;63488;48.092;-1.640;2023-02-05T16:01:27;4.57;;;1.00;;
74926;SDS011;63488;48.092;-1.640;2023-02-05T16:03:53;3.67;;;1.17;;
74926;SDS011;63488;48.092;-1.640;2023-02-05T16:06:20;3.20;;;1.20;;
74926;SDS011;63488;48.092;-1.640;2023-02-05T16:08:46;4.13;;;1.20;;
74926;SDS011;63488;48.092;-1.640;2023-02-05T16:11:12;3.30;;;0.82;;
74926;SDS011;63488;48.092;-1.640;2023-02-05T16:13:37;4.35;;;1.40;;
74926;SDS011;63488;48.092;-1.640;2023-02-05T16:16:08;3.10;;;1.27;;
74926;SDS011;63488;48.092;-1.640;2023-02-05T16:21:12;3.75;;;1.00;;
74926;SDS011;63488;48.092;-1.640;2023-02-05T16:23:47;4.07;;;1.23;;
74926;SDS011;63488;48.092;-1.640;2023-02-05T16:26:59;3.00;;;1.00;;
74926;SDS011;63488;48.092;-1.640;2023-02-05T16:29:04;6.15;;;1.50;;
74926;SDS011;63488;48.092;-1.640;2023-02-05T16:31:29;5.77;;;1.10;;
74926;SDS011;63488;48.092;-1.640;2023-02-05T16:33:57;2.70;;;1.10;;
74926;SDS011;63488;48.092;-1.640;2023-02-05T16:36:24;3.03;;;1.13;;
74926;SDS011;63488;48.092;-1.640;2023-02-05T16:38:53;4.00;;;1.30;;
74926;SDS011;63488;48.092;-1.640;2023-02-05T16:43:45;3.53;;;1.45;;
74926;SDS011;63488;48.092;-1.640;2023-02-05T16:48:36;4.07;;;1.30;;
74926;SDS011;63488;48.092;-1.640;2023-02-05T16:51:02;4.47;;;1.23;;
74926;SDS011;63488;48.092;-1.640;2023-02-05T16:53:29;3.17;;;1.08;;
74926;SDS011;63488;48.092;-1.640;2023-02-05T16:55:55;4.93;;;1.42;;